Time;durP1;ratioP1;P1;durP2;ratioP2;P2;SDS_P1;SDS_P2;PMS_P1;PMS_P2;Temp;Humidity;BMP_temperature;BMP_pressure;BME280_temperature;BME280_humidity;BME280_pressure;Samples;Min_cycle;Max_cycle;Signal;HPM_P1;HPM_P2
2023/09/01 00:01:33;;;;;;;3.88;1.50;;;13.00;99.90;;;;;;4224150;28;20036;-85
2023/09/01 00:03:34;;;;;;;5.03;2.10;;;13.00;99.90;;;;;;4204286;28;20056;-84
2023/09/01 00:05:36;;;;;;;9.07;1.73;;;12.70;99.90;;;;;;4226646;28;20044;-85
2023/09/01 00:07:38;;;;;;;9.25;2.03;;;12.90;99.90;;;;;;4213245;28;20059;-85
2023/09/01 00:09:38;;;;;;;3.30;1.40;;;12.80;99.90;;;;;;4238715;28;20035;-83
2023/09/01 00:11:39;;;;;;;5.35;1.65;;;12.80;99.90;;;;;;4225031;28;20048;-84
2023/09/01 00:13:41;;;;;;;3.53;1.75;;;12.80;99.90;;;;;;4222599;28;20050;-83
2023/09/01 00:15:41;;;;;;;3.22;1.60;;;12.80;99.90;;;;;;4217289;28;20056;-83
2023/09/01 00:17:42;;;;;;;8.20;1.50;;;12.80;99.90;;;;;;4217393;28;20040;-83
2023/09/01 00:19:43;;;;;;;4.05;1.70;;;12.80;99.90;;;;;;4215856;28;20088;-83
2023/09/01 00:21:44;;;;;;;5.10;1.23;;;12.80;99.90;;;;;;4200026;28;20131;-83
2023/09/01 00:23:45;;;;;;;3.75;1.42;;;11.90;99.90;;;;;;4216900;28;20484;-82
2023/09/01 00:25:45;;;;;;;3.63;1.75;;;12.80;99.90;;;;;;4217016;28;20068;-83
2023/09/01 00:27:46;;;;;;;2.75;1.55;;;12.80;99.90;;;;;;4221664;28;20051;-83
2023/09/01 00:29:47;;;;;;;4.50;1.55;;;12.80;99.90;;;;;;4217004;28;20400;-83
2023/09/01 00:31:48;;;;;;;6.30;1.60;;;12.80;99.90;;;;;;4219896;28;20046;-84
2023/09/01 00:33:49;;;;;;;4.35;1.70;;;12.80;99.90;;;;;;4233882;28;20499;-83
2023/09/01 00:35:51;;;;;;;3.40;1.38;;;12.70;99.90;;;;;;4233621;28;20071;-83
2023/09/01 00:37:52;;;;;;;7.20;1.83;;;12.70;99.90;;;;;;4232331;28;20048;-83
2023/09/01 00:39:52;;;;;;;3.10;1.80;;;12.70;99.90;;;;;;4233734;28;20440;-83
2023/09/01 00:41:53;;;;;;;8.15;2.58;;;12.70;99.90;;;;;;4233716;28;20050;-83
2023/09/01 00:43:54;;;;;;;6.03;3.03;;;12.20;99.90;;;;;;4232363;28;20039;-84
2023/09/01 00:45:56;;;;;;;3.83;2.55;;;12.60;99.90;;;;;;4233480;28;20048;-84
2023/09/01 00:47:57;;;;;;;9.93;2.92;;;12.60;99.90;;;;;;4233372;28;20111;-84
2023/09/01 00:49:58;;;;;;;11.73;4.80;;;12.60;99.90;;;;;;4227636;28;20055;-84
2023/09/01 00:51:59;;;;;;;12.32;4.75;;;12.60;99.90;;;;;;4232687;28;20051;-83
2023/09/01 00:54:00;;;;;;;8.93;4.13;;;12.70;99.90;;;;;;4215379;28;20496;-84
2023/09/01 00:56:03;;;;;;;9.57;5.32;;;12.50;99.90;;;;;;4231683;28;20047;-83
2023/09/01 00:58:04;;;;;;;11.48;4.90;;;12.50;99.90;;;;;;4233316;28;20051;-83
2023/09/01 01:00:07;;;;;;;8.63;4.43;;;12.90;99.90;;;;;;4233319;28;20048;-83
2023/09/01 01:02:08;;;;;;;10.75;4.50;;;12.50;99.90;;;;;;4233235;28;20055;-84
2023/09/01 01:04:10;;;;;;;8.65;4.60;;;12.50;99.90;;;;;;4233726;28;20391;-83
2023/09/01 01:06:29;;;;;;;11.93;4.38;;;12.50;99.90;;;;;;4226078;28;20098;-84
2023/09/01 01:09:08;;;;;;;7.10;3.63;;;12.50;99.90;;;;;;4233275;28;20051;-84
2023/09/01 01:11:17;;;;;;;11.35;4.00;;;12.50;99.90;;;;;;4231436;28;20087;-84
2023/09/01 01:13:21;;;;;;;7.22;3.70;;;12.50;99.90;;;;;;4232795;28;20046;-84
2023/09/01 01:15:23;;;;;;;6.80;3.60;;;12.40;99.90;;;;;;4231609;28;20055;-84
2023/09/01 01:17:26;;;;;;;9.25;4.00;;;12.40;99.90;;;;;;4233161;28;20040;-84
2023/09/01 01:19:45;;;;;;;9.02;3.75;;;12.40;99.90;;;;;;4232269;28;20071;-85
2023/09/01 01:21:50;;;;;;;5.70;2.92;;;12.40;99.90;;;;;;4233059;28;20066;-84
2023/09/01 01:23:52;;;;;;;7.82;2.95;;;12.30;99.90;;;;;;4232732;28;20039;-84
2023/09/01 01:25:54;;;;;;;9.23;2.70;;;12.30;99.90;;;;;;4231858;28;20526;-84
2023/09/01 01:27:57;;;;;;;6.82;2.70;;;12.30;99.90;;;;;;4233306;28;20048;-84
2023/09/01 01:29:58;;;;;;;5.82;2.65;;;12.40;99.90;;;;;;4232133;28;20101;-84
2023/09/01 01:31:59;;;;;;;4.45;2.00;;;12.30;99.90;;;;;;4232677;28;20040;-84
2023/09/01 01:34:19;;;;;;;4.68;2.08;;;12.20;99.90;;;;;;4214749;28;20101;-84
2023/09/01 01:36:29;;;;;;;4.70;2.05;;;12.30;99.90;;;;;;4231684;28;20043;-84
2023/09/01 01:38:32;;;;;;;4.18;2.00;;;12.20;99.90;;;;;;4227278;28;20116;-85
2023/09/01 01:40:34;;;;;;;3.65;1.75;;;12.30;99.90;;;;;;4214418;28;20047;-84
2023/09/01 01:42:37;;;;;;;4.68;2.13;;;12.30;99.90;;;;;;4232969;28;20119;-84
2023/09/01 01:44:45;;;;;;;7.00;2.35;;;12.20;99.90;;;;;;4232044;28;20044;-84
2023/09/01 01:46:48;;;;;;;6.77;2.30;;;12.20;99.90;;;;;;4232441;28;20419;-85
2023/09/01 01:48:49;;;;;;;6.95;2.60;;;12.20;99.90;;;;;;4233405;28;20407;-84
2023/09/01 01:50:54;;;;;;;5.70;1.83;;;12.20;99.90;;;;;;4216391;28;20080;-85
2023/09/01 01:52:55;;;;;;;4.18;2.00;;;12.10;99.90;;;;;;4197866;28;20473;-84
2023/09/01 01:54:56;;;;;;;3.85;2.00;;;12.10;99.90;;;;;;4215310;28;20040;-84
2023/09/01 01:56:57;;;;;;;4.45;1.88;;;12.10;99.90;;;;;;4214863;28;20109;-84
2023/09/01 01:58:59;;;;;;;7.90;2.20;;;12.10;99.90;;;;;;4198433;28;20049;-84
2023/09/01 02:01:06;;;;;;;3.03;1.58;;;12.10;99.90;;;;;;4214570;28;20056;-84
2023/09/01 02:03:07;;;;;;;6.55;2.10;;;12.10;99.90;;;;;;4216109;28;20059;-84
2023/09/01 02:05:08;;;;;;;4.90;1.80;;;12.10;99.90;;;;;;4215136;28;20047;-84
2023/09/01 02:07:10;;;;;;;7.28;1.95;;;11.20;99.90;;;;;;4214626;28;20161;-84
2023/09/01 02:09:11;;;;;;;4.68;2.15;;;12.10;99.90;;;;;;4215637;28;20461;-84
2023/09/01 02:11:12;;;;;;;3.95;1.75;;;12.00;99.90;;;;;;4215584;28;20126;-84
2023/09/01 02:13:14;;;;;;;9.43;2.03;;;12.00;99.90;;;;;;4202006;28;20488;-84
2023/09/01 02:15:14;;;;;;;2.70;1.80;;;12.00;99.90;;;;;;4219282;28;20441;-84
2023/09/01 02:17:16;;;;;;;6.72;1.90;;;12.00;99.90;;;;;;4227732;28;20062;-84
2023/09/01 02:19:17;;;;;;;7.20;2.47;;;12.00;99.90;;;;;;4230834;28;20039;-84
2023/09/01 02:21:21;;;;;;;7.05;2.03;;;12.10;99.90;;;;;;4231669;28;20385;-84
2023/09/01 02:23:22;;;;;;;5.78;2.05;;;12.00;99.90;;;;;;4231693;28;20105;-84
2023/09/01 02:25:23;;;;;;;5.15;2.35;;;11.90;99.90;;;;;;4230815;28;20044;-84
2023/09/01 02:27:23;;;;;;;4.05;2.08;;;11.90;99.90;;;;;;4232181;28;20503;-84
2023/09/01 02:29:24;;;;;;;6.93;1.92;;;11.90;99.90;;;;;;4231889;28;20039;-84
2023/09/01 02:31:25;;;;;;;4.88;1.67;;;11.80;99.90;;;;;;4231694;28;20048;-84
2023/09/01 02:33:26;;;;;;;3.08;1.85;;;11.90;99.90;;;;;;4231856;28;20507;-84
2023/09/01 02:35:27;;;;;;;5.38;1.75;;;11.80;99.90;;;;;;4231810;28;20047;-84
2023/09/01 02:37:29;;;;;;;5.75;1.95;;;11.80;99.90;;;;;;4231984;28;20078;-84
2023/09/01 02:39:30;;;;;;;4.93;1.70;;;11.80;99.90;;;;;;4231664;28;20507;-84
2023/09/01 02:41:31;;;;;;;3.22;1.88;;;11.80;99.90;;;;;;4213934;28;20082;-84
2023/09/01 02:43:31;;;;;;;4.45;1.67;;;11.70;99.90;;;;;;4230984;28;20043;-84
2023/09/01 02:45:32;;;;;;;7.00;2.08;;;11.70;99.90;;;;;;4209626;28;20756;-84
2023/09/01 02:47:34;;;;;;;3.75;1.38;;;11.70;99.90;;;;;;4215323;28;20043;-84
2023/09/01 02:49:35;;;;;;;4.20;1.70;;;11.70;99.90;;;;;;4227893;28;20101;-85
2023/09/01 02:51:36;;;;;;;5.13;1.75;;;11.70;99.90;;;;;;4231545;28;20040;-84
2023/09/01 02:53:37;;;;;;;3.28;1.50;;;11.70;99.90;;;;;;4232473;28;20047;-85
2023/09/01 02:55:38;;;;;;;6.22;1.42;;;11.80;99.90;;;;;;4230902;28;20070;-84
2023/09/01 02:57:39;;;;;;;4.30;1.83;;;11.70;99.90;;;;;;4232285;28;20400;-83
2023/09/01 02:59:45;;;;;;;3.88;1.63;;;11.70;99.90;;;;;;4234104;28;20122;-82
2023/09/01 03:01:47;;;;;;;6.13;1.73;;;11.80;99.90;;;;;;4234917;28;20039;-82
2023/09/01 03:03:49;;;;;;;4.00;1.60;;;10.50;99.90;;;;;;4225313;28;20453;-85
2023/09/01 03:05:52;;;;;;;4.93;1.83;;;11.80;99.90;;;;;;4227639;28;20047;-85
2023/09/01 03:07:53;;;;;;;4.72;1.50;;;12.10;99.90;;;;;;4234916;28;20424;-85
2023/09/01 03:09:55;;;;;;;4.53;2.17;;;11.80;99.90;;;;;;4224734;28;20051;-85
2023/09/01 03:11:56;;;;;;;5.60;1.67;;;11.80;99.90;;;;;;4219355;28;20051;-84
2023/09/01 03:13:57;;;;;;;3.95;1.85;;;11.70;99.90;;;;;;4221128;28;20094;-83
2023/09/01 03:15:59;;;;;;;3.83;1.55;;;11.70;99.90;;;;;;4217631;28;20048;-83
2023/09/01 03:18:03;;;;;;;6.18;2.17;;;12.00;99.90;;;;;;4219187;28;20043;-83
2023/09/01 03:20:08;;;;;;;6.78;3.53;;;11.70;99.90;;;;;;4230849;28;20044;-83
2023/09/01 03:22:10;;;;;;;3.22;1.58;;;11.60;99.90;;;;;;4235078;28;20050;-83
2023/09/01 03:24:11;;;;;;;5.80;2.00;;;11.60;99.90;;;;;;4242389;28;20095;-82
2023/09/01 03:26:11;;;;;;;5.13;1.67;;;11.70;99.90;;;;;;4243675;28;20432;-82
2023/09/01 03:28:12;;;;;;;5.57;2.22;;;11.70;99.90;;;;;;4244294;28;20040;-83
2023/09/01 03:30:13;;;;;;;3.80;1.58;;;11.60;99.90;;;;;;4244101;28;20043;-83
2023/09/01 03:32:14;;;;;;;5.43;1.98;;;11.60;99.90;;;;;;4242798;28;20042;-83
2023/09/01 03:34:15;;;;;;;4.50;1.88;;;11.60;99.90;;;;;;4241372;28;20040;-82
2023/09/01 03:36:18;;;;;;;4.40;1.80;;;11.60;99.90;;;;;;4220058;28;20040;-84
2023/09/01 03:38:19;;;;;;;5.40;2.25;;;11.70;99.90;;;;;;4236291;28;20051;-84
2023/09/01 03:40:21;;;;;;;1.92;1.30;;;11.60;99.90;;;;;;4242827;28;20062;-85
2023/09/01 03:42:22;;;;;;;4.28;1.88;;;11.60;99.90;;;;;;4242657;28;20097;-84
2023/09/01 03:44:22;;;;;;;6.80;1.63;;;11.60;99.90;;;;;;4219473;28;20040;-85
2023/09/01 03:46:23;;;;;;;3.80;1.70;;;11.60;99.90;;;;;;4231237;28;20507;-85
2023/09/01 03:48:25;;;;;;;6.00;2.65;;;11.50;99.90;;;;;;4231046;28;20104;-84
2023/09/01 03:50:26;;;;;;;7.15;2.30;;;11.60;99.90;;;;;;4231622;28;20043;-82
2023/09/01 03:52:27;;;;;;;4.60;1.65;;;11.50;99.90;;;;;;4231038;28;20043;-83
2023/09/01 03:54:27;;;;;;;3.85;2.22;;;11.50;99.90;;;;;;4227346;28;20152;-83
2023/09/01 03:56:28;;;;;;;4.40;2.30;;;11.50;99.90;;;;;;4213187;28;20044;-83
2023/09/01 03:58:29;;;;;;;4.22;1.65;;;11.50;99.90;;;;;;4214338;28;20097;-82
2023/09/01 04:00:30;;;;;;;5.72;2.35;;;11.50;99.90;;;;;;4214179;28;20105;-82
2023/09/01 04:02:31;;;;;;;5.75;2.10;;;11.50;99.90;;;;;;4214095;28;20036;-83
2023/09/01 04:04:32;;;;;;;6.78;2.28;;;11.50;99.90;;;;;;4195542;28;20114;-83
2023/09/01 04:06:33;;;;;;;4.25;2.10;;;11.40;99.90;;;;;;4214088;28;20044;-83
2023/09/01 04:08:34;;;;;;;4.18;1.88;;;11.40;99.90;;;;;;4214199;28;20039;-83
2023/09/01 04:10:38;;;;;;;7.03;2.03;;;11.40;99.90;;;;;;4213160;28;20040;-84
2023/09/01 04:12:39;;;;;;;5.55;2.13;;;11.40;99.90;;;;;;4223011;28;20498;-84
2023/09/01 04:14:40;;;;;;;4.40;1.75;;;11.30;99.90;;;;;;4215695;28;20040;-85
2023/09/01 04:16:41;;;;;;;5.18;2.13;;;10.30;99.90;;;;;;4213092;28;20104;-84
2023/09/01 04:18:41;;;;;;;8.85;3.00;;;11.30;99.90;;;;;;4231532;28;20043;-85
2023/09/01 04:20:53;;;;;;;3.90;1.80;;;11.40;99.90;;;;;;4231372;28;20118;-85
2023/09/01 04:22:54;;;;;;;5.53;2.13;;;11.30;99.90;;;;;;4214139;28;20052;-85
2023/09/01 04:24:55;;;;;;;6.78;2.60;;;11.30;99.90;;;;;;4231102;28;20480;-85
2023/09/01 04:26:56;;;;;;;4.38;2.08;;;11.30;99.90;;;;;;4230616;28;20040;-84
2023/09/01 04:28:57;;;;;;;6.38;2.08;;;11.30;99.90;;;;;;4221626;28;20056;-83
2023/09/01 04:31:02;;;;;;;6.07;2.10;;;11.30;99.90;;;;;;4231218;28;20051;-83
2023/09/01 04:33:06;;;;;;;6.35;1.80;;;11.20;99.90;;;;;;4232874;28;20071;-83
2023/09/01 04:35:07;;;;;;;5.57;1.73;;;11.20;99.90;;;;;;4215710;28;20044;-84
2023/09/01 04:37:08;;;;;;;8.73;2.33;;;11.20;99.90;;;;;;4215155;28;20155;-83
2023/09/01 04:39:09;;;;;;;5.25;1.77;;;11.20;99.90;;;;;;4198678;28;20053;-84
2023/09/01 04:41:10;;;;;;;6.10;1.95;;;12.40;99.90;;;;;;4220542;28;20056;-86
2023/09/01 04:43:11;;;;;;;3.90;2.33;;;11.10;99.90;;;;;;4250872;27;20095;-85
2023/09/01 04:45:12;;;;;;;5.68;2.13;;;11.10;99.90;;;;;;4232584;28;20131;-85
2023/09/01 04:47:12;;;;;;;4.03;2.00;;;11.10;99.90;;;;;;4250505;27;20035;-85
2023/09/01 04:49:13;;;;;;;4.72;1.90;;;11.10;99.90;;;;;;4231990;28;20189;-83
2023/09/01 04:51:14;;;;;;;4.75;2.67;;;11.10;99.90;;;;;;4232104;28;20117;-85
2023/09/01 04:53:15;;;;;;;4.05;1.70;;;11.10;99.90;;;;;;4250755;27;20039;-83
2023/09/01 04:55:16;;;;;;;6.32;1.98;;;11.10;99.90;;;;;;4244530;27;20092;-84
2023/09/01 04:57:17;;;;;;;6.22;2.10;;;11.10;99.90;;;;;;4232388;28;20039;-84
2023/09/01 04:59:18;;;;;;;4.68;1.95;;;11.10;99.90;;;;;;4226536;27;20155;-84
2023/09/01 05:01:18;;;;;;;6.22;2.05;;;11.10;99.90;;;;;;4227299;28;20138;-84
2023/09/01 05:03:19;;;;;;;4.13;2.00;;;11.10;99.90;;;;;;4251203;27;20070;-84
2023/09/01 05:05:20;;;;;;;5.07;2.40;;;11.10;99.90;;;;;;4232940;28;20035;-85
2023/09/01 05:07:21;;;;;;;4.13;2.20;;;11.30;99.90;;;;;;4240646;27;20055;-84
2023/09/01 05:09:22;;;;;;;7.38;2.55;;;10.80;99.90;;;;;;4247269;27;20047;-85
2023/09/01 05:11:23;;;;;;;6.43;2.53;;;11.10;99.90;;;;;;4232775;28;20148;-84
2023/09/01 05:13:26;;;;;;;4.97;2.55;;;11.10;99.90;;;;;;4249558;27;20046;-84
2023/09/01 05:15:30;;;;;;;4.47;1.52;;;11.20;99.90;;;;;;4215122;28;20599;-84
2023/09/01 05:17:31;;;;;;;6.03;2.03;;;11.20;99.90;;;;;;4233434;28;20129;-84
2023/09/01 05:19:32;;;;;;;5.85;2.05;;;11.20;99.90;;;;;;4233122;28;20048;-85
2023/09/01 05:21:33;;;;;;;5.90;2.17;;;11.30;99.90;;;;;;4237317;28;20096;-85
2023/09/01 05:23:34;;;;;;;3.58;1.77;;;11.20;99.90;;;;;;4233977;28;20506;-85
2023/09/01 05:25:35;;;;;;;5.47;2.20;;;11.30;99.90;;;;;;4233069;27;20043;-85
2023/09/01 05:27:36;;;;;;;3.35;2.13;;;11.20;99.90;;;;;;4232817;28;20136;-85
2023/09/01 05:29:37;;;;;;;2.80;2.03;;;12.50;99.90;;;;;;4226268;28;20063;-85
2023/09/01 05:31:38;;;;;;;3.63;1.70;;;11.30;99.90;;;;;;4196428;28;20392;-86
2023/09/01 05:33:40;;;;;;;5.45;1.90;;;11.30;99.90;;;;;;4198316;28;20129;-85
2023/09/01 05:35:40;;;;;;;5.97;2.15;;;11.30;99.90;;;;;;4214566;28;20044;-85
2023/09/01 05:37:41;;;;;;;4.47;1.80;;;11.30;99.90;;;;;;4215746;28;20063;-82
2023/09/01 05:39:42;;;;;;;8.95;2.38;;;11.40;99.90;;;;;;4215130;28;20044;-83
2023/09/01 05:41:43;;;;;;;11.55;1.90;;;11.40;99.90;;;;;;4214056;28;20094;-83
2023/09/01 05:43:44;;;;;;;5.55;1.90;;;11.50;99.90;;;;;;4214202;28;20039;-83
2023/09/01 05:45:45;;;;;;;6.03;2.35;;;11.60;99.90;;;;;;4215575;28;20407;-83
2023/09/01 05:47:45;;;;;;;6.55;2.03;;;11.60;99.90;;;;;;4195401;28;20581;-85
2023/09/01 05:49:46;;;;;;;4.30;1.80;;;11.70;99.90;;;;;;4212993;28;20095;-84
2023/09/01 05:51:47;;;;;;;8.48;2.60;;;11.70;99.90;;;;;;4211097;28;20041;-84
2023/09/01 05:53:48;;;;;;;3.70;2.22;;;11.90;99.90;;;;;;4212096;28;20075;-84
2023/09/01 05:55:50;;;;;;;4.70;2.10;;;11.80;99.90;;;;;;4214333;28;20048;-84
2023/09/01 05:57:50;;;;;;;5.53;2.13;;;11.90;99.90;;;;;;4214335;28;20465;-84
2023/09/01 05:59:51;;;;;;;6.40;2.13;;;12.00;99.90;;;;;;4215528;28;20051;-83
2023/09/01 06:01:52;;;;;;;3.70;2.03;;;12.10;99.90;;;;;;4213813;28;20047;-84
2023/09/01 06:03:53;;;;;;;8.02;2.08;;;12.40;99.90;;;;;;4215348;28;20040;-83
2023/09/01 06:05:54;;;;;;;6.05;1.92;;;12.20;99.90;;;;;;4209539;28;20038;-84
2023/09/01 06:07:54;;;;;;;5.97;1.90;;;12.20;99.90;;;;;;4197262;28;20063;-82
2023/09/01 06:09:55;;;;;;;5.70;2.40;;;12.30;99.90;;;;;;4215381;28;20113;-81
2023/09/01 06:11:56;;;;;;;8.05;2.08;;;12.40;99.90;;;;;;4213780;28;20044;-82
2023/09/01 06:13:58;;;;;;;4.07;1.85;;;12.50;99.90;;;;;;4213892;28;20083;-82
2023/09/01 06:15:59;;;;;;;2.25;1.60;;;13.70;99.90;;;;;;4241791;27;20441;-83
2023/09/01 06:18:00;;;;;;;6.80;2.28;;;12.60;99.90;;;;;;4244594;27;20036;-83
2023/09/01 06:20:00;;;;;;;3.45;1.83;;;12.70;99.90;;;;;;4232114;28;20039;-82
2023/09/01 06:22:02;;;;;;;6.20;2.20;;;12.80;99.90;;;;;;4215148;28;20138;-83
2023/09/01 06:24:03;;;;;;;5.18;1.60;;;12.90;99.90;;;;;;4231209;28;20036;-83
2023/09/01 06:26:04;;;;;;;3.28;1.85;;;13.00;99.90;;;;;;4232128;28;20391;-83
2023/09/01 06:28:05;;;;;;;7.47;1.95;;;13.10;99.90;;;;;;4239912;27;20043;-83
2023/09/01 06:30:07;;;;;;;5.68;1.60;;;13.20;99.90;;;;;;4213198;28;20051;-83
2023/09/01 06:32:11;;;;;;;4.95;1.50;;;13.30;99.90;;;;;;4230896;28;20051;-82
2023/09/01 06:34:12;;;;;;;4.93;1.80;;;13.30;99.90;;;;;;4234825;28;20055;-81
2023/09/01 06:36:13;;;;;;;5.80;1.70;;;13.40;99.90;;;;;;4254281;27;20074;-82
2023/09/01 06:38:13;;;;;;;5.13;2.42;;;13.40;99.90;;;;;;4228851;28;20404;-83
2023/09/01 06:40:14;;;;;;;4.57;1.98;;;13.60;99.90;;;;;;4247490;27;20039;-82
2023/09/01 06:42:15;;;;;;;6.10;1.77;;;13.60;99.90;;;;;;4232131;28;20518;-81
2023/09/01 06:44:19;;;;;;;3.35;1.63;;;13.70;99.90;;;;;;4247386;27;20073;-82
2023/09/01 06:46:19;;;;;;;3.58;1.65;;;13.80;99.90;;;;;;4248654;27;20109;-82
2023/09/01 06:48:20;;;;;;;5.10;1.55;;;13.80;99.90;;;;;;4252385;27;20047;-82
2023/09/01 06:50:22;;;;;;;6.38;2.40;;;13.90;99.90;;;;;;4229496;28;20054;-80
2023/09/01 06:52:22;;;;;;;8.05;2.25;;;14.00;99.90;;;;;;4247847;27;20062;-80
2023/09/01 06:54:23;;;;;;;6.85;1.95;;;14.10;99.90;;;;;;4247518;27;20039;-80
2023/09/01 06:56:24;;;;;;;5.82;1.90;;;14.10;99.90;;;;;;4230128;28;20078;-81
2023/09/01 06:58:24;;;;;;;5.70;1.73;;;14.20;99.90;;;;;;4248173;27;20043;-80
2023/09/01 07:00:25;;;;;;;3.80;1.98;;;14.30;99.90;;;;;;4248594;27;20053;-81
2023/09/01 07:02:26;;;;;;;3.83;1.90;;;14.40;99.90;;;;;;4248532;27;20087;-81
2023/09/01 07:04:27;;;;;;;5.75;1.70;;;14.50;99.90;;;;;;4230236;28;20404;-81
2023/09/01 07:06:27;;;;;;;4.30;1.63;;;14.60;99.90;;;;;;4254765;27;20074;-82
2023/09/01 07:08:29;;;;;;;8.05;2.85;;;14.80;99.90;;;;;;4248739;27;20054;-83
2023/09/01 07:10:30;;;;;;;6.28;1.88;;;;;;;;;;4249636;27;20147;-80
2023/09/01 07:12:31;;;;;;;5.20;1.60;;;14.80;99.90;;;;;;4250974;27;20066;-81
2023/09/01 07:14:31;;;;;;;2.97;1.40;;;15.10;99.90;;;;;;4249153;27;20046;-82
2023/09/01 07:16:32;;;;;;;6.35;1.60;;;15.20;99.90;;;;;;4242613;28;20047;-81
2023/09/01 07:18:33;;;;;;;3.53;1.13;;;15.30;99.90;;;;;;4232104;28;20043;-82
2023/09/01 07:20:34;;;;;;;8.50;1.40;;;14.80;99.90;;;;;;4231213;28;20092;-83
2023/09/01 07:22:35;;;;;;;2.00;1.30;;;15.40;99.90;;;;;;4242740;28;20043;-82
2023/09/01 07:24:36;;;;;;;4.43;1.55;;;15.50;99.90;;;;;;4248597;28;20095;-82
2023/09/01 07:26:36;;;;;;;5.97;1.38;;;15.50;99.90;;;;;;4248775;28;20039;-82
2023/09/01 07:28:38;;;;;;;6.95;1.30;;;15.60;99.90;;;;;;4248441;28;20035;-82
2023/09/01 07:30:40;;;;;;;3.78;1.35;;;15.60;99.90;;;;;;4248457;28;20092;-81
2023/09/01 07:32:40;;;;;;;3.70;1.27;;;15.70;99.90;;;;;;4212678;28;20121;-83
2023/09/01 07:34:41;;;;;;;3.95;1.23;;;15.70;99.90;;;;;;4226877;28;20111;-83
2023/09/01 07:36:42;;;;;;;5.60;1.10;;;15.80;99.90;;;;;;4237107;28;20058;-83
2023/09/01 07:38:43;;;;;;;5.53;1.83;;;17.00;99.90;;;;;;4231063;28;20036;-82
2023/09/01 07:40:44;;;;;;;4.05;1.30;;;16.00;99.90;;;;;;4213947;28;20035;-82
2023/09/01 07:42:45;;;;;;;8.02;2.50;;;16.20;99.90;;;;;;4235070;28;20055;-83
2023/09/01 07:44:46;;;;;;;6.22;1.33;;;16.30;99.90;;;;;;4231346;28;20476;-83
2023/09/01 07:46:47;;;;;;;3.90;1.23;;;16.40;99.90;;;;;;4213413;28;20078;-82
2023/09/01 07:48:48;;;;;;;4.72;1.20;;;16.50;99.90;;;;;;4231272;28;20855;-83
2023/09/01 07:50:49;;;;;;;5.00;1.20;;;16.60;99.90;;;;;;4213443;28;20095;-82
2023/09/01 07:52:51;;;;;;;3.00;1.42;;;16.70;99.90;;;;;;4196471;28;20071;-82
2023/09/01 07:54:53;;;;;;;4.68;1.10;;;16.70;99.90;;;;;;4232987;28;20040;-82
2023/09/01 07:56:53;;;;;;;3.78;1.10;;;16.50;99.90;;;;;;4231245;28;20043;-82
2023/09/01 07:58:54;;;;;;;6.75;1.50;;;16.70;99.90;;;;;;4231352;28;20050;-82
2023/09/01 08:00:55;;;;;;;4.15;1.58;;;16.70;99.90;;;;;;4210682;28;20500;-82
2023/09/01 08:02:56;;;;;;;7.32;1.55;;;16.80;99.90;;;;;;4231299;28;20038;-82
2023/09/01 08:04:57;;;;;;;2.60;1.33;;;16.80;99.90;;;;;;4231703;28;20496;-82
2023/09/01 08:06:59;;;;;;;4.72;1.38;;;16.80;99.90;;;;;;4221027;28;20032;-80
2023/09/01 08:09:01;;;;;;;1.65;0.90;;;16.90;99.90;;;;;;4218096;28;20411;-81
2023/09/01 08:11:02;;;;;;;4.38;1.20;;;16.80;99.90;;;;;;4236498;27;20066;-83
2023/09/01 08:13:05;;;;;;;1.67;0.93;;;17.20;99.90;;;;;;4238065;27;20502;-83
2023/09/01 08:15:06;;;;;;;4.05;1.10;;;17.00;99.90;;;;;;4234219;28;20616;-82
2023/09/01 08:17:07;;;;;;;3.63;1.13;;;17.10;99.90;;;;;;4244931;27;20516;-83
2023/09/01 08:19:08;;;;;;;4.68;1.48;;;17.20;99.90;;;;;;4232791;28;20075;-83
2023/09/01 08:21:09;;;;;;;3.95;1.20;;;17.30;99.90;;;;;;4251462;27;20047;-83
2023/09/01 08:23:10;;;;;;;5.25;1.65;;;17.30;99.90;;;;;;4232060;28;20042;-83
2023/09/01 08:25:11;;;;;;;3.75;1.10;;;17.40;99.90;;;;;;4250984;27;20407;-83
2023/09/01 08:27:12;;;;;;;7.07;1.40;;;17.40;99.90;;;;;;4251024;27;20053;-83
2023/09/01 08:29:14;;;;;;;5.97;1.60;;;17.40;99.90;;;;;;4215311;28;20052;-82
2023/09/01 08:31:15;;;;;;;2.75;0.98;;;17.20;99.90;;;;;;4215482;28;20044;-82
2023/09/01 08:33:17;;;;;;;2.42;0.80;;;17.30;99.90;;;;;;4233502;28;20119;-82
2023/09/01 08:35:18;;;;;;;2.70;0.90;;;17.50;99.90;;;;;;4233946;28;20044;-82
2023/09/01 08:37:20;;;;;;;3.58;1.00;;;17.50;99.90;;;;;;4200643;28;20217;-82
2023/09/01 08:39:21;;;;;;;4.43;1.00;;;17.40;99.90;;;;;;4215213;28;20074;-82
2023/09/01 08:41:24;;;;;;;2.10;0.80;;;17.50;99.90;;;;;;4237214;27;20043;-83
2023/09/01 08:43:26;;;;;;;3.30;1.10;;;17.60;99.90;;;;;;4230462;28;20046;-83
2023/09/01 08:45:30;;;;;;;4.88;1.23;;;17.70;99.90;;;;;;4198349;28;20440;-83
2023/09/01 08:47:39;;;;;;;2.13;0.75;;;17.60;99.90;;;;;;4237567;27;20483;-82
2023/09/01 08:49:39;;;;;;;1.30;0.85;;;17.70;99.90;;;;;;4238013;27;20501;-82
2023/09/01 08:51:41;;;;;;;3.58;0.95;;;17.70;99.90;;;;;;4233349;28;20134;-82
2023/09/01 08:53:44;;;;;;;2.28;1.02;;;17.80;99.90;;;;;;4233334;28;20396;-82
2023/09/01 08:55:45;;;;;;;3.05;1.67;;;17.90;99.90;;;;;;4233261;28;20069;-82
2023/09/01 08:57:49;;;;;;;2.72;1.10;;;17.80;99.90;;;;;;4214938;28;20048;-82
2023/09/01 08:59:49;;;;;;;2.03;0.73;;;17.80;99.90;;;;;;4215396;28;20048;-82
2023/09/01 09:01:50;;;;;;;0.98;0.50;;;17.90;99.90;;;;;;4233335;28;20120;-82
2023/09/01 09:03:51;;;;;;;4.00;0.73;;;18.00;99.90;;;;;;4233133;28;20075;-82
2023/09/01 09:05:52;;;;;;;3.80;0.80;;;18.10;99.90;;;;;;4233151;28;20051;-82
2023/09/01 09:07:58;;;;;;;3.22;0.77;;;18.20;99.90;;;;;;4215150;28;20088;-82
2023/09/01 09:10:00;;;;;;;5.60;0.88;;;18.20;99.90;;;;;;4232366;28;20051;-82
2023/09/01 09:12:00;;;;;;;3.63;0.80;;;18.40;99.90;;;;;;4214813;28;20081;-82
2023/09/01 09:14:01;;;;;;;2.90;0.80;;;18.10;99.90;;;;;;4217310;28;20078;-82
2023/09/01 09:16:15;;;;;;;4.05;0.80;;;18.10;99.90;;;;;;4234231;27;20122;-82
2023/09/01 09:18:31;;;;;;;1.65;0.90;;;18.10;99.90;;;;;;4231115;28;20040;-83
2023/09/01 09:20:39;;;;;;;3.22;0.70;;;18.10;99.90;;;;;;4244800;27;20063;-83
2023/09/01 09:23:01;;;;;;;2.55;0.60;;;18.20;99.90;;;;;;4249494;27;20035;-84
2023/09/01 09:25:01;;;;;;;2.83;0.90;;;18.20;99.90;;;;;;4249785;27;20035;-84
2023/09/01 09:27:06;;;;;;;1.33;0.75;;;18.20;99.90;;;;;;4235612;27;20100;-84
2023/09/01 09:29:11;;;;;;;1.55;0.70;;;18.20;99.90;;;;;;4233551;28;20044;-82
2023/09/01 09:31:12;;;;;;;2.83;0.93;;;18.20;99.90;;;;;;4232491;28;20043;-83
2023/09/01 09:33:13;;;;;;;6.18;0.80;;;18.20;99.90;;;;;;4232964;28;20463;-83
2023/09/01 09:35:16;;;;;;;3.08;0.60;;;18.30;99.90;;;;;;4233012;28;20407;-83
2023/09/01 09:37:17;;;;;;;2.45;0.85;;;18.40;99.90;;;;;;4214675;28;20044;-83
2023/09/01 09:39:25;;;;;;;6.45;0.93;;;18.50;99.90;;;;;;4232644;28;20051;-83
2023/09/01 09:41:26;;;;;;;1.75;0.50;;;18.40;99.90;;;;;;4214807;28;20044;-83
2023/09/01 09:43:27;;;;;;;1.80;0.90;;;18.40;99.90;;;;;;4232082;28;20048;-83
2023/09/01 09:45:32;;;;;;;2.28;1.23;;;18.40;99.90;;;;;;4232547;28;20404;-83
2023/09/01 09:47:33;;;;;;;2.20;0.70;;;18.50;99.90;;;;;;4238551;27;20039;-83
2023/09/01 09:49:34;;;;;;;4.32;1.48;;;18.60;99.90;;;;;;4249462;27;20066;-84
2023/09/01 09:51:42;;;;;;;1.92;1.10;;;18.60;99.90;;;;;;4230922;28;20047;-84
2023/09/01 09:53:45;;;;;;;4.35;1.15;;;19.20;99.90;;;;;;4249379;27;20039;-84
2023/09/01 09:55:48;;;;;;;2.92;1.10;;;18.60;99.90;;;;;;4249242;27;20079;-83
2023/09/01 09:57:50;;;;;;;2.35;0.70;;;18.50;99.90;;;;;;4230915;28;20111;-83
2023/09/01 10:00:12;;;;;;;4.05;0.93;;;18.60;99.90;;;;;;4249205;27;20043;-84
2023/09/01 10:02:44;;;;;;;3.28;0.80;;;18.60;99.90;;;;;;4249141;27;20092;-85
2023/09/01 10:04:46;;;;;;;1.10;0.75;;;18.70;99.90;;;;;;4235211;27;20483;-83
2023/09/01 10:06:47;;;;;;;2.83;0.73;;;18.70;99.90;;;;;;4248955;27;20047;-83
2023/09/01 10:08:48;;;;;;;5.18;1.30;;;18.80;99.90;;;;;;4249440;27;20127;-83
2023/09/01 10:10:49;;;;;;;3.10;0.90;;;18.80;99.90;;;;;;4249324;27;20039;-83
2023/09/01 10:12:50;;;;;;;4.97;0.93;;;18.80;99.90;;;;;;4249678;27;20039;-82
2023/09/01 10:14:54;;;;;;;3.60;1.17;;;18.90;99.90;;;;;;4241994;27;20051;-83
2023/09/01 10:16:58;;;;;;;1.02;0.60;;;18.90;99.90;;;;;;4223147;28;20088;-84
2023/09/01 10:18:59;;;;;;;4.40;1.00;;;18.90;99.90;;;;;;4230647;28;20039;-84
2023/09/01 10:21:00;;;;;;;4.88;1.20;;;20.00;99.90;;;;;;4248712;27;20150;-83
2023/09/01 10:23:03;;;;;;;5.70;1.52;;;;;;;;;;4248763;27;20051;-83
2023/09/01 10:25:15;;;;;;;2.72;1.00;;;19.20;99.90;;;;;;4248686;27;20047;-83
2023/09/01 10:27:16;;;;;;;4.68;1.67;;;19.40;99.90;;;;;;4249349;27;20122;-84
2023/09/01 10:29:31;;;;;;;2.25;1.10;;;19.60;99.90;;;;;;4248964;27;20047;-84
2023/09/01 10:31:33;;;;;;;2.05;0.90;;;19.80;99.90;;;;;;4249319;27;20543;-83
2023/09/01 10:33:33;;;;;;;1.85;0.55;;;20.00;99.90;;;;;;4231346;28;20071;-85
2023/09/01 10:35:51;;;;;;;4.57;2.03;;;20.00;99.90;;;;;;4250241;27;20036;-83
2023/09/01 10:38:13;;;;;;;2.25;0.90;;;20.20;99.90;;;;;;4248231;27;20035;-83